createdAt,value
2023-05-25T00:02:28.636Z,81.32
2023-05-25T00:07:30.753Z,81.13
2023-05-25T00:12:31.593Z,81.45
2023-05-25T00:17:32.375Z,81.16
2023-05-25T00:22:34.667Z,81.20
2023-05-25T00:27:35.422Z,81.64
2023-05-25T00:32:36.151Z,81.68
2023-05-25T00:37:38.192Z,81.58
2023-05-25T00:42:39.963Z,81.54
2023-05-25T00:47:41.460Z,81.90
2023-05-25T00:52:43.861Z,82.27
2023-05-25T00:57:48.170Z,82.39
2023-05-25T01:02:53.297Z,82.25
2023-05-25T01:07:57.070Z,82.64
2023-05-25T01:13:00.662Z,82.36
2023-05-25T01:18:03.631Z,82.10
2023-05-25T01:23:13.804Z,82.22
2023-05-25T01:28:19.500Z,82.64
2023-05-25T01:33:22.037Z,82.45
2023-05-25T01:38:24.087Z,82.62
2023-05-25T01:43:24.890Z,82.57
2023-05-25T01:48:35.881Z,82.44
2023-05-25T01:53:44.728Z,82.76
2023-05-25T01:58:50.354Z,83.49
2023-05-25T02:03:51.515Z,83.46
2023-05-25T02:08:53.565Z,84.01
2023-05-25T02:13:54.390Z,84.09
2023-05-25T02:18:58.070Z,84.48
2023-05-25T02:24:01.379Z,84.03
2023-05-25T02:29:02.224Z,84.56
2023-05-25T02:34:03.132Z,84.89
2023-05-25T02:39:05.533Z,84.30
2023-05-25T02:44:06.650Z,84.90
2023-05-25T02:49:07.511Z,85.44
2023-05-25T02:54:12.845Z,85.17
2023-05-25T02:59:13.697Z,85.38
2023-05-25T03:04:14.391Z,85.63
2023-05-25T03:09:16.536Z,85.18
2023-05-25T03:14:18.949Z,84.81
2023-05-25T03:19:28.065Z,84.65
2023-05-25T03:24:30.123Z,85.04
2023-05-25T03:29:34.234Z,84.89
2023-05-25T03:34:36.291Z,84.08
2023-05-25T03:39:40.020Z,83.50
2023-05-25T03:44:41.362Z,84.25
2023-05-25T03:49:42.881Z,82.84
2023-05-25T03:54:45.014Z,83.21
2023-05-25T03:59:45.767Z,83.05
2023-05-25T04:04:46.534Z,83.12
2023-05-25T04:09:48.611Z,83.51
2023-05-25T04:14:51.136Z,84.32
2023-05-25T04:19:52.703Z,83.71
2023-05-25T04:24:56.446Z,82.28
2023-05-25T04:29:57.485Z,80.42
2023-05-25T04:35:20.873Z,80.21
2023-05-25T04:40:24.588Z,79.88
2023-05-25T04:45:25.779Z,79.16
2023-05-25T04:50:26.933Z,78.23
2023-05-25T04:55:32.170Z,78.32
2023-05-25T05:00:34.323Z,78.33
2023-05-25T05:05:36.917Z,77.39
2023-05-25T05:10:43.511Z,76.86
2023-05-25T05:15:45.103Z,76.06
2023-05-25T05:20:46.102Z,76.00
2023-05-25T05:25:48.193Z,75.84
2023-05-25T05:30:50.035Z,76.37
2023-05-25T05:35:52.451Z,76.36
2023-05-25T05:40:57.929Z,75.44
2023-05-25T05:45:58.718Z,74.15
2023-05-25T05:50:59.565Z,74.02
2023-05-25T05:56:01.948Z,73.92
2023-05-25T06:01:03.393Z,72.17
2023-05-25T06:06:04.869Z,71.58
2023-05-25T06:11:08.351Z,71.48
2023-05-25T06:16:10.158Z,70.57
2023-05-25T06:21:13.022Z,70.45
2023-05-25T06:26:15.262Z,69.43
2023-05-25T06:31:16.299Z,69.06
2023-05-25T06:36:17.334Z,68.51
2023-05-25T06:41:20.428Z,67.91
2023-05-25T06:46:22.422Z,66.80
2023-05-25T06:51:23.387Z,64.77
2023-05-25T06:56:26.331Z,64.26
2023-05-25T07:01:27.073Z,64.33
2023-05-25T07:06:27.746Z,64.79
2023-05-25T07:11:29.755Z,64.10
2023-05-25T07:16:31.979Z,63.02
2023-05-25T07:21:33.602Z,61.80
2023-05-25T07:26:36.503Z,61.35
2023-05-25T07:31:37.485Z,60.58
2023-05-25T07:36:38.317Z,59.85
2023-05-25T07:41:40.765Z,59.29
2023-05-25T07:46:41.483Z,58.96
2023-05-25T07:51:42.304Z,58.48
2023-05-25T07:56:44.388Z,57.58
2023-05-25T08:01:45.231Z,55.90
2023-05-25T08:06:46.379Z,54.03
2023-05-25T08:11:48.444Z,52.11
2023-05-25T08:16:49.350Z,54.12
2023-05-25T08:21:50.118Z,54.18
2023-05-25T08:26:54.381Z,54.46
2023-05-25T08:31:57.964Z,53.27
2023-05-25T08:36:58.894Z,52.93
2023-05-25T08:42:01.126Z,52.29
2023-05-25T08:47:06.451Z,51.07
2023-05-25T08:52:11.603Z,51.72
2023-05-25T08:57:18.188Z,51.12
2023-05-25T09:02:28.029Z,50.40
2023-05-25T09:07:29.089Z,50.46
2023-05-25T09:12:31.786Z,50.78
2023-05-25T09:17:32.568Z,49.34
2023-05-25T09:22:33.283Z,47.63
2023-05-25T09:27:38.110Z,47.82
2023-05-25T09:32:39.143Z,47.88
2023-05-25T09:37:41.245Z,46.20
2023-05-25T09:42:43.499Z,46.99
2023-05-25T09:47:44.360Z,47.72
2023-05-25T09:52:45.177Z,46.52
2023-05-25T09:57:47.214Z,47.41
2023-05-25T10:02:47.961Z,46.01
2023-05-25T10:07:51.110Z,45.26
2023-05-25T10:12:55.368Z,45.38
2023-05-25T10:17:58.779Z,45.81
2023-05-25T10:23:05.829Z,45.32
2023-05-25T10:28:17.345Z,43.67
2023-05-25T10:33:18.395Z,43.95
2023-05-25T10:38:19.748Z,43.49
2023-05-25T10:43:24.493Z,43.93
2023-05-25T10:48:36.310Z,42.63
2023-05-25T10:53:37.166Z,42.67
2023-05-25T10:58:43.124Z,43.03
2023-05-25T11:03:50.037Z,42.39
2023-05-25T11:08:54.858Z,40.84
2023-05-25T11:13:56.861Z,41.75
2023-05-25T11:18:58.976Z,40.29
2023-05-25T11:24:02.823Z,39.99
2023-05-25T11:29:14.668Z,40.28
2023-05-25T11:34:15.590Z,41.09
2023-05-25T11:39:22.321Z,39.64
2023-05-25T11:44:29.365Z,37.59
2023-05-25T11:49:30.238Z,36.94
2023-05-25T11:54:31.533Z,39.53
2023-05-25T11:59:34.888Z,38.35
2023-05-25T12:04:35.833Z,38.35
2023-05-25T12:09:36.920Z,37.63
2023-05-25T12:14:48.333Z,37.38
2023-05-25T12:19:49.821Z,37.79
2023-05-25T12:24:50.867Z,36.28
2023-05-25T12:29:53.203Z,36.53
2023-05-25T12:35:03.682Z,36.99
2023-05-25T12:40:17.957Z,36.47
2023-05-25T12:45:20.132Z,36.82
2023-05-25T12:50:23.337Z,35.85
2023-05-25T12:55:29.285Z,36.22
2023-05-25T13:00:34.974Z,36.22
2023-05-25T13:05:37.549Z,34.47
2023-05-25T13:10:41.060Z,35.41
2023-05-25T13:15:43.321Z,35.60
2023-05-25T13:20:45.377Z,35.33
2023-05-25T13:25:48.167Z,35.73
2023-05-25T13:30:50.382Z,35.67
2023-05-25T13:35:59.082Z,34.12
2023-05-25T13:40:59.992Z,33.50
2023-05-25T13:46:02.452Z,33.89
2023-05-25T13:51:04.138Z,34.29
2023-05-25T13:56:04.910Z,33.25
2023-05-25T14:01:07.137Z,34.35
2023-05-25T14:06:09.307Z,34.38
2023-05-25T14:11:10.098Z,34.02
2023-05-25T14:16:12.214Z,31.75
2023-05-25T14:21:13.284Z,32.17
2023-05-25T14:26:13.973Z,32.95
2023-05-25T14:31:16.144Z,32.39
2023-05-25T14:36:16.858Z,33.09
2023-05-25T14:41:17.684Z,32.67
2023-05-25T14:46:19.739Z,32.90
2023-05-25T14:51:20.577Z,31.69
2023-05-25T14:56:23.083Z,30.78
2023-05-25T15:01:25.624Z,31.29
2023-05-25T15:06:26.458Z,31.21
2023-05-25T15:11:27.538Z,31.22
2023-05-25T15:16:29.661Z,32.16
2023-05-25T15:21:30.431Z,33.58
2023-05-25T15:26:31.125Z,32.77
2023-05-25T15:31:33.195Z,32.62
2023-05-25T15:36:33.931Z,33.16
2023-05-25T15:41:34.626Z,32.77
2023-05-25T15:46:36.879Z,32.16
2023-05-25T15:51:42.775Z,31.80
2023-05-25T15:56:43.525Z,31.20
2023-05-25T16:01:45.595Z,31.46
2023-05-25T16:06:48.491Z,31.38
2023-05-25T16:11:49.220Z,30.43
2023-05-25T16:16:51.334Z,29.12
2023-05-25T16:21:52.126Z,28.32
2023-05-25T16:26:53.138Z,27.38
2023-05-25T16:31:55.726Z,27.51
2023-05-25T16:36:56.484Z,26.69
2023-05-25T16:41:57.918Z,25.60
2023-05-25T16:46:59.940Z,24.63
2023-05-25T16:52:02.565Z,25.64
2023-05-25T16:57:03.310Z,27.84
2023-05-25T17:02:05.681Z,26.67
2023-05-25T17:07:06.404Z,27.26
2023-05-25T17:12:08.097Z,27.17
2023-05-25T17:17:10.170Z,26.68
2023-05-25T17:22:10.909Z,26.79
2023-05-25T17:27:11.691Z,27.44
2023-05-25T17:32:13.854Z,27.17
2023-05-25T17:37:14.734Z,28.20
2023-05-25T17:42:15.536Z,28.62
2023-05-25T17:47:17.914Z,28.18
2023-05-25T17:52:18.641Z,30.58
2023-05-25T17:57:19.334Z,31.95
2023-05-25T18:02:21.686Z,35.08
2023-05-25T18:07:22.504Z,36.87
2023-05-25T18:12:23.215Z,37.95
2023-05-25T18:17:25.232Z,38.66
2023-05-25T18:22:26.047Z,39.42
2023-05-25T18:27:26.776Z,39.83
2023-05-25T18:32:28.838Z,40.38
2023-05-25T18:37:34.125Z,41.14
2023-05-25T18:42:35.632Z,42.04
2023-05-25T18:47:37.815Z,41.94
2023-05-25T18:52:38.674Z,42.92
2023-05-25T18:57:39.417Z,43.24
2023-05-25T19:02:41.654Z,43.88
2023-05-25T19:07:54.760Z,44.49
2023-05-25T19:12:58.740Z,44.75
2023-05-25T19:18:03.517Z,46.05
2023-05-25T19:23:04.279Z,46.96
2023-05-25T19:28:05.012Z,47.44
2023-05-25T19:33:07.227Z,47.69
2023-05-25T19:38:08.866Z,48.63
2023-05-25T19:43:09.988Z,49.43
2023-05-25T19:48:12.053Z,49.69
2023-05-25T19:53:12.810Z,50.35
2023-05-25T19:58:13.552Z,51.29
2023-05-25T20:03:16.148Z,51.60
2023-05-25T20:08:16.996Z,52.09
2023-05-25T20:13:17.685Z,52.24
2023-05-25T20:18:19.848Z,52.74
2023-05-25T20:23:20.871Z,53.33
2023-05-25T20:28:21.596Z,53.82
2023-05-25T20:33:24.445Z,53.88
2023-05-25T20:38:25.136Z,54.33
2023-05-25T20:43:25.844Z,54.99
2023-05-25T20:48:27.900Z,54.87
2023-05-25T20:53:28.631Z,55.70
2023-05-25T20:58:29.330Z,55.95
2023-05-25T21:03:31.652Z,56.42
2023-05-25T21:08:32.925Z,57.29
2023-05-25T21:13:33.654Z,57.24
2023-05-25T21:18:35.753Z,57.72
2023-05-25T21:23:36.614Z,57.87
2023-05-25T21:28:37.332Z,58.29
2023-05-25T21:33:40.192Z,59.12
2023-05-25T21:38:40.936Z,59.60
2023-05-25T21:43:41.678Z,59.67
2023-05-25T21:48:43.811Z,59.92
2023-05-25T21:53:44.472Z,59.99
2023-05-25T21:58:45.247Z,60.31
2023-05-25T22:03:47.254Z,60.26
2023-05-25T22:08:48.086Z,60.26
2023-05-25T22:13:48.771Z,61.02
2023-05-25T22:18:50.871Z,60.63
2023-05-25T22:23:51.566Z,60.78
2023-05-25T22:28:52.294Z,61.39
2023-05-25T22:33:54.684Z,62.64
2023-05-25T22:38:55.443Z,62.88
2023-05-25T22:43:56.451Z,63.09
2023-05-25T22:48:58.644Z,63.00
2023-05-25T22:53:59.369Z,62.66
2023-05-25T22:59:00.039Z,62.39
2023-05-25T23:04:02.170Z,62.62
2023-05-25T23:09:03.080Z,62.79
2023-05-25T23:14:03.901Z,63.40
2023-05-25T23:19:06.202Z,63.52
2023-05-25T23:24:07.496Z,63.87
2023-05-25T23:29:08.285Z,64.51
2023-05-25T23:34:10.405Z,64.50
2023-05-25T23:39:11.212Z,66.17
2023-05-25T23:44:11.989Z,66.72
2023-05-25T23:49:14.124Z,67.25
2023-05-25T23:54:14.799Z,67.55
2023-05-25T23:59:15.995Z,68.43
